createdAt,value
2018-06-15T00:02:16.684Z,8.23
2018-06-15T00:04:44.486Z,8.77
2018-06-15T00:07:12.611Z,7.77
2018-06-15T00:09:40.580Z,8.10
2018-06-15T00:12:08.317Z,8.73
2018-06-15T00:14:36.655Z,8.20
2018-06-15T00:17:04.860Z,9.90
2018-06-15T00:19:32.696Z,9.73
2018-06-15T00:22:00.492Z,9.73
2018-06-15T00:24:28.719Z,9.10
2018-06-15T00:26:56.556Z,9.50
2018-06-15T00:29:24.346Z,9.70
2018-06-15T00:31:52.419Z,10.27
2018-06-15T00:34:20.186Z,9.70
2018-06-15T00:36:47.997Z,9.17
2018-06-15T00:39:16.044Z,8.43
2018-06-15T00:41:44.498Z,8.40
2018-06-15T00:44:12.430Z,8.50
2018-06-15T00:46:40.792Z,8.60
2018-06-15T00:49:08.892Z,7.93
2018-06-15T00:51:37.158Z,7.97
2018-06-15T00:54:06.446Z,8.63
2018-06-15T00:56:34.283Z,8.20
2018-06-15T00:59:02.314Z,8.30
2018-06-15T01:01:30.806Z,11.90
2018-06-15T01:03:58.605Z,9.03
2018-06-15T01:06:27.076Z,9.43
2018-06-15T01:08:55.314Z,8.77
2018-06-15T01:11:23.154Z,9.20
2018-06-15T01:13:51.601Z,9.23
2018-06-15T01:16:19.758Z,11.17
2018-06-15T01:18:47.483Z,8.23
2018-06-15T01:21:15.558Z,9.37
2018-06-15T01:23:43.528Z,9.77
2018-06-15T01:26:11.418Z,8.30
2018-06-15T01:28:39.232Z,7.53
2018-06-15T01:31:07.004Z,6.87
2018-06-15T01:33:34.804Z,7.63
2018-06-15T01:36:02.636Z,7.47
2018-06-15T01:38:31.464Z,8.30
2018-06-15T01:40:59.472Z,10.57
2018-06-15T01:43:27.282Z,7.47
2018-06-15T01:45:55.306Z,7.63
2018-06-15T01:48:23.084Z,7.43
2018-06-15T01:50:50.834Z,8.77
2018-06-15T01:53:18.947Z,8.53
2018-06-15T01:55:46.834Z,7.27
2018-06-15T01:58:14.606Z,7.27
2018-06-15T02:00:42.670Z,7.23
2018-06-15T02:03:10.733Z,7.57
2018-06-15T02:05:38.778Z,8.83
2018-06-15T02:08:06.908Z,8.77
2018-06-15T02:10:34.954Z,6.73
2018-06-15T02:13:02.955Z,7.57
2018-06-15T02:15:30.706Z,8.37
2018-06-15T02:17:58.432Z,7.53
2018-06-15T02:20:26.212Z,8.37
2018-06-15T02:22:55.988Z,7.13
2018-06-15T02:25:23.916Z,7.10
2018-06-15T02:27:51.946Z,8.27
2018-06-15T02:30:19.656Z,7.30
2018-06-15T02:32:48.034Z,7.37
2018-06-15T02:35:16.896Z,6.43
2018-06-15T02:37:45.271Z,6.87
2018-06-15T02:40:13.187Z,7.07
2018-06-15T02:42:41.178Z,6.83
2018-06-15T02:45:08.883Z,7.43
2018-06-15T02:47:37.977Z,6.33
2018-06-15T02:50:06.566Z,7.10
2018-06-15T02:52:35.516Z,5.77
2018-06-15T02:55:03.427Z,6.93
2018-06-15T02:57:32.158Z,5.07
2018-06-15T03:00:00.107Z,6.47
2018-06-15T03:02:27.871Z,6.47
2018-06-15T03:04:55.965Z,6.37
2018-06-15T03:07:23.731Z,7.03
2018-06-15T03:09:51.494Z,5.53
2018-06-15T03:12:19.220Z,5.53
2018-06-15T03:14:47.283Z,5.60
2018-06-15T03:17:15.037Z,5.00
2018-06-15T03:19:42.750Z,6.07
2018-06-15T03:22:11.360Z,5.40
2018-06-15T03:24:39.135Z,5.53
2018-06-15T03:27:06.937Z,5.73
2018-06-15T03:29:35.300Z,6.67
2018-06-15T03:32:03.094Z,5.73
2018-06-15T03:34:31.038Z,6.00
2018-06-15T03:36:59.620Z,5.60
2018-06-15T03:39:27.409Z,6.07
2018-06-15T03:41:55.761Z,5.33
2018-06-15T03:44:24.553Z,4.60
2018-06-15T03:46:52.372Z,5.03
2018-06-15T03:49:20.054Z,5.23
2018-06-15T03:51:48.244Z,5.07
2018-06-15T03:54:16.332Z,4.37
2018-06-15T03:56:44.150Z,4.60
2018-06-15T03:59:12.324Z,4.83
2018-06-15T04:01:40.599Z,5.20
2018-06-15T04:04:08.742Z,4.90
2018-06-15T04:06:37.289Z,4.20
2018-06-15T04:09:07.335Z,4.40
2018-06-15T04:11:35.062Z,4.10
2018-06-15T04:14:02.796Z,4.73
2018-06-15T04:16:30.527Z,4.87
2018-06-15T04:18:58.263Z,4.27
2018-06-15T04:21:26.094Z,5.10
2018-06-15T04:23:54.182Z,4.87
2018-06-15T04:26:21.931Z,4.30
2018-06-15T04:28:50.937Z,5.20
2018-06-15T04:31:18.845Z,5.50
2018-06-15T04:33:46.707Z,3.93
2018-06-15T04:36:14.578Z,3.90
2018-06-15T04:38:42.289Z,5.30
2018-06-15T04:41:10.085Z,6.27
2018-06-15T04:43:38.101Z,4.63
2018-06-15T04:46:05.923Z,4.97
2018-06-15T04:48:34.011Z,4.87
2018-06-15T04:51:01.913Z,4.93
2018-06-15T04:53:29.683Z,4.90
2018-06-15T04:56:01.109Z,4.63
2018-06-15T04:58:29.531Z,4.57
2018-06-15T05:00:57.637Z,4.20
2018-06-15T05:03:25.339Z,4.80
2018-06-15T05:05:54.287Z,4.57
2018-06-15T05:08:23.219Z,4.63
2018-06-15T05:10:51.246Z,5.37
2018-06-15T05:13:19.373Z,4.53
2018-06-15T05:15:47.155Z,4.83
2018-06-15T05:18:15.007Z,4.97
2018-06-15T05:20:42.687Z,6.10
2018-06-15T05:23:10.883Z,5.20
2018-06-15T05:25:38.473Z,5.87
2018-06-15T05:28:06.515Z,5.23
2018-06-15T05:30:34.178Z,4.83
2018-06-15T05:33:01.841Z,5.33
2018-06-15T05:35:29.807Z,5.03
2018-06-15T05:37:58.164Z,5.90
2018-06-15T05:40:26.113Z,5.20
2018-06-15T05:42:53.790Z,5.70
2018-06-15T05:45:22.502Z,6.40
2018-06-15T05:47:50.527Z,4.43
2018-06-15T05:50:19.300Z,6.47
2018-06-15T05:52:47.566Z,4.70
2018-06-15T05:55:15.631Z,5.07
2018-06-15T05:57:43.408Z,4.93
2018-06-15T06:00:11.111Z,6.27
2018-06-15T06:02:38.772Z,5.23
2018-06-15T06:05:06.799Z,4.40
2018-06-15T06:07:34.521Z,5.73
2018-06-15T06:10:02.326Z,6.30
2018-06-15T06:12:30.605Z,5.50
2018-06-15T06:14:58.677Z,4.60
2018-06-15T06:17:26.487Z,5.87
2018-06-15T06:19:54.223Z,13.10
2018-06-15T06:22:22.297Z,14.83
2018-06-15T06:24:49.959Z,8.40
2018-06-15T06:27:17.738Z,7.20
2018-06-15T06:29:45.419Z,6.30
2018-06-15T06:32:13.403Z,6.17
2018-06-15T06:34:41.874Z,8.17
2018-06-15T06:37:09.573Z,7.77
2018-06-15T06:39:38.526Z,5.93
2018-06-15T06:42:06.204Z,6.63
2018-06-15T06:44:33.889Z,9.83
2018-06-15T06:47:01.562Z,7.03
2018-06-15T06:49:29.332Z,6.97
2018-06-15T06:51:57.175Z,7.30
2018-06-15T06:54:24.955Z,6.87
2018-06-15T06:56:53.207Z,8.93
2018-06-15T06:59:21.519Z,8.03
2018-06-15T07:11:36.995Z,7.67
2018-06-15T07:14:05.107Z,7.07
2018-06-15T07:16:33.723Z,6.83
2018-06-15T07:19:01.461Z,6.73
2018-06-15T07:21:29.271Z,7.00
2018-06-15T07:23:58.611Z,6.47
2018-06-15T07:26:26.969Z,6.87
2018-06-15T07:28:55.282Z,5.27
2018-06-15T07:31:26.553Z,7.37
2018-06-15T07:33:54.249Z,7.97
2018-06-15T07:36:23.591Z,7.90
2018-06-15T07:38:52.209Z,7.13
2018-06-15T07:41:20.174Z,5.70
2018-06-15T07:43:47.952Z,7.93
2018-06-15T07:46:15.808Z,7.30
2018-06-15T07:48:44.403Z,5.63
2018-06-15T07:51:13.373Z,8.90
2018-06-15T07:53:41.521Z,6.83
2018-06-15T07:56:09.249Z,6.00
2018-06-15T07:58:36.978Z,7.00
2018-06-15T08:01:05.093Z,6.10
2018-06-15T08:03:33.615Z,8.50
2018-06-15T08:06:01.675Z,7.23
2018-06-15T08:08:29.577Z,7.17
2018-06-15T08:10:58.195Z,6.27
2018-06-15T08:13:25.896Z,6.43
2018-06-15T08:15:54.003Z,6.67
2018-06-15T08:18:22.040Z,7.10
2018-06-15T08:20:51.203Z,8.00
2018-06-15T08:23:18.889Z,6.40
2018-06-15T08:25:46.724Z,7.60
2018-06-15T08:28:14.471Z,8.67
2018-06-15T08:30:43.428Z,6.30
2018-06-15T08:33:11.201Z,6.73
2018-06-15T08:35:38.977Z,5.70
2018-06-15T08:38:06.679Z,6.20
2018-06-15T08:40:34.379Z,6.90
2018-06-15T08:43:02.423Z,7.50
2018-06-15T08:45:30.133Z,7.03
2018-06-15T08:47:57.977Z,6.23
2018-06-15T08:50:25.780Z,6.90
2018-06-15T08:52:53.949Z,6.73
2018-06-15T08:55:21.654Z,5.67
2018-06-15T08:57:50.343Z,6.13
2018-06-15T09:00:18.046Z,6.00
2018-06-15T09:02:45.810Z,6.50
2018-06-15T09:05:14.248Z,7.17
2018-06-15T09:07:41.946Z,6.33
2018-06-15T09:10:09.951Z,6.77
2018-06-15T09:12:38.031Z,6.83
2018-06-15T09:15:05.857Z,7.60
2018-06-15T09:17:33.902Z,7.53
2018-06-15T09:20:01.630Z,5.70
2018-06-15T09:22:29.429Z,6.40
2018-06-15T09:24:57.121Z,6.47
2018-06-15T09:27:24.756Z,5.50
2018-06-15T09:29:52.420Z,6.20
2018-06-15T09:32:20.110Z,7.17
2018-06-15T09:34:48.095Z,6.30
2018-06-15T09:37:16.041Z,5.83
2018-06-15T09:39:43.708Z,7.70
2018-06-15T09:42:11.603Z,4.67
2018-06-15T09:44:39.530Z,4.57
2018-06-15T09:47:07.211Z,5.70
2018-06-15T09:49:35.944Z,7.07
2018-06-15T09:52:03.620Z,5.03
2018-06-15T09:54:31.294Z,5.60
2018-06-15T09:56:59.021Z,5.47
2018-06-15T09:59:27.269Z,5.57
2018-06-15T10:01:54.941Z,5.37
2018-06-15T10:04:23.440Z,4.93
2018-06-15T10:06:51.094Z,5.63
2018-06-15T10:09:19.151Z,5.27
2018-06-15T10:11:46.809Z,6.67
2018-06-15T10:14:14.473Z,5.10
2018-06-15T10:16:42.151Z,5.73
2018-06-15T10:19:09.794Z,3.80
2018-06-15T10:21:37.771Z,6.63
2018-06-15T10:33:50.508Z,4.43
2018-06-15T10:36:19.080Z,5.53
2018-06-15T10:38:46.949Z,4.77
2018-06-15T10:41:14.965Z,5.20
2018-06-15T10:43:42.650Z,4.47
2018-06-15T10:46:11.129Z,5.03
2018-06-15T10:48:39.032Z,6.17
2018-06-15T10:51:08.188Z,5.67
2018-06-15T10:53:35.863Z,5.87
2018-06-15T10:56:03.799Z,4.17
2018-06-15T10:58:31.334Z,4.80
2018-06-15T11:00:58.984Z,5.53
2018-06-15T11:03:26.700Z,5.33
2018-06-15T11:05:54.502Z,5.73
2018-06-15T11:08:22.287Z,5.70
2018-06-15T11:10:50.042Z,5.33
2018-06-15T11:13:18.649Z,5.93
2018-06-15T11:15:46.333Z,5.07
2018-06-15T11:18:14.001Z,4.50
2018-06-15T11:20:42.350Z,5.50
2018-06-15T11:23:10.036Z,6.13
2018-06-15T11:25:37.696Z,4.93
2018-06-15T11:28:05.687Z,6.20
2018-06-15T11:30:34.049Z,3.73
2018-06-15T11:33:02.007Z,4.77
2018-06-15T11:35:29.647Z,5.10
2018-06-15T11:37:57.301Z,5.40
2018-06-15T11:40:25.533Z,4.00
2018-06-15T11:42:53.185Z,5.20
2018-06-15T11:45:20.977Z,5.77
2018-06-15T11:47:52.607Z,3.83
2018-06-15T11:50:20.279Z,5.20
2018-06-15T11:52:47.961Z,5.47
2018-06-15T11:55:16.264Z,4.03
2018-06-15T11:57:43.935Z,4.00
2018-06-15T12:00:11.599Z,4.23
2018-06-15T12:02:39.319Z,4.87
2018-06-15T12:05:07.347Z,4.73
2018-06-15T12:07:35.606Z,4.10
2018-06-15T12:10:03.665Z,4.67
2018-06-15T12:12:32.183Z,5.23
2018-06-15T12:14:59.934Z,3.97
2018-06-15T12:17:27.621Z,4.47
2018-06-15T12:19:55.331Z,4.33
2018-06-15T12:22:23.236Z,4.27
2018-06-15T12:24:51.235Z,3.33
2018-06-15T12:27:19.471Z,3.90
2018-06-15T12:29:47.154Z,3.83
2018-06-15T12:32:14.835Z,3.87
2018-06-15T12:34:42.552Z,4.60
2018-06-15T12:37:10.558Z,4.30
2018-06-15T12:39:38.270Z,5.30
2018-06-15T12:42:06.331Z,5.97
2018-06-15T12:44:34.092Z,4.20
2018-06-15T12:47:01.842Z,4.87
2018-06-15T12:49:29.550Z,5.40
2018-06-15T12:51:57.247Z,4.80
2018-06-15T12:54:24.917Z,4.73
2018-06-15T12:56:52.619Z,4.80
2018-06-15T12:59:20.299Z,5.10
2018-06-15T13:01:48.289Z,4.03
2018-06-15T13:04:15.949Z,4.07
2018-06-15T13:06:43.630Z,4.53
2018-06-15T13:09:11.859Z,4.80
2018-06-15T13:11:39.655Z,4.07
2018-06-15T13:14:07.869Z,4.03
2018-06-15T13:16:36.332Z,4.53
2018-06-15T13:19:04.009Z,3.97
2018-06-15T13:21:32.223Z,3.60
2018-06-15T13:24:00.505Z,4.17
2018-06-15T13:26:28.491Z,4.27
2018-06-15T13:28:56.479Z,5.30
2018-06-15T13:31:24.273Z,3.20
2018-06-15T13:33:52.508Z,4.50
2018-06-15T13:36:20.232Z,5.53
2018-06-15T13:38:48.011Z,3.80
2018-06-15T13:41:15.722Z,4.00
2018-06-15T13:43:43.398Z,5.10
2018-06-15T13:46:11.067Z,4.07
2018-06-15T13:48:38.725Z,4.57
2018-06-15T13:51:06.411Z,4.40
2018-06-15T13:53:34.116Z,3.57
2018-06-15T13:56:01.780Z,3.83
2018-06-15T13:58:29.978Z,4.90
2018-06-15T14:00:58.232Z,4.77
2018-06-15T14:03:25.983Z,3.20
2018-06-15T14:05:53.749Z,3.43
2018-06-15T14:08:21.663Z,3.23
2018-06-15T14:10:49.343Z,4.27
2018-06-15T14:13:17.347Z,4.27
2018-06-15T14:15:45.050Z,5.30
2018-06-15T14:18:12.731Z,4.50
2018-06-15T14:20:40.449Z,3.70
2018-06-15T14:23:08.209Z,4.87
2018-06-15T14:25:36.153Z,3.50
2018-06-15T14:28:03.935Z,5.67
2018-06-15T14:30:31.877Z,3.60
2018-06-15T14:32:59.533Z,3.77
2018-06-15T14:35:27.213Z,4.10
2018-06-15T14:37:55.539Z,3.17
2018-06-15T14:40:23.507Z,4.00
2018-06-15T14:42:51.201Z,3.13
2018-06-15T14:45:19.210Z,3.80
2018-06-15T14:47:47.019Z,3.90
2018-06-15T14:50:15.077Z,5.07
2018-06-15T14:52:43.130Z,4.27
2018-06-15T14:55:10.840Z,4.27
2018-06-15T14:57:38.800Z,4.20
2018-06-15T15:00:06.445Z,3.43
2018-06-15T15:02:34.561Z,3.90
2018-06-15T15:05:02.556Z,5.03
2018-06-15T15:17:15.295Z,4.83
2018-06-15T15:19:44.533Z,3.63
2018-06-15T15:22:12.602Z,4.60
2018-06-15T15:24:40.303Z,3.80
2018-06-15T15:27:09.240Z,3.77
2018-06-15T15:29:36.944Z,5.50
2018-06-15T15:32:04.619Z,3.47
2018-06-15T15:34:32.322Z,3.63
2018-06-15T15:37:02.021Z,4.83
2018-06-15T15:39:29.683Z,3.83
2018-06-15T15:41:57.378Z,4.23
2018-06-15T15:44:25.040Z,3.80
2018-06-15T15:46:59.485Z,5.53
2018-06-15T15:49:28.515Z,2.83
2018-06-15T15:51:56.838Z,4.93
2018-06-15T15:54:25.175Z,4.43
2018-06-15T15:56:53.862Z,4.43
2018-06-15T15:59:21.835Z,6.27
2018-06-15T16:01:49.766Z,4.80
2018-06-15T16:04:17.839Z,4.37
2018-06-15T16:06:45.591Z,4.57
2018-06-15T16:09:13.266Z,4.50
2018-06-15T16:11:41.195Z,4.83
2018-06-15T16:14:08.917Z,3.70
2018-06-15T16:16:38.678Z,5.23
2018-06-15T16:19:06.988Z,3.40
2018-06-15T16:21:34.686Z,4.90
2018-06-15T16:24:02.702Z,4.67
2018-06-15T16:26:31.159Z,3.73
2018-06-15T16:28:58.881Z,3.53
2018-06-15T16:31:26.748Z,4.23
2018-06-15T16:43:38.567Z,4.03
2018-06-15T16:46:07.329Z,5.20
2018-06-15T16:48:35.045Z,4.43
2018-06-15T16:51:02.821Z,4.00
2018-06-15T16:53:32.150Z,3.63
2018-06-15T16:56:00.297Z,4.90
2018-06-15T16:58:28.425Z,4.27
2018-06-15T17:00:56.439Z,3.13
2018-06-15T17:03:24.249Z,3.47
2018-06-15T17:05:53.764Z,4.13
2018-06-15T17:08:21.991Z,2.97
2018-06-15T17:10:49.768Z,3.53
2018-06-15T17:13:17.551Z,4.07
2018-06-15T17:28:40.302Z,4.97
2018-06-15T17:31:08.448Z,4.80
2018-06-15T17:33:36.193Z,3.43
2018-06-15T17:36:04.471Z,3.40
2018-06-15T17:38:32.450Z,4.13
2018-06-15T17:41:00.205Z,5.90
2018-06-15T17:43:27.899Z,3.97
2018-06-15T17:45:55.615Z,5.67
2018-06-15T17:48:23.290Z,5.90
2018-06-15T17:50:51.461Z,4.67
2018-06-15T17:53:19.591Z,9.20
2018-06-15T17:55:48.075Z,13.30
2018-06-15T17:58:17.638Z,6.93
2018-06-15T18:00:45.416Z,12.33
2018-06-15T18:03:13.112Z,8.37
2018-06-15T18:05:41.163Z,7.87
2018-06-15T18:08:08.879Z,6.37
2018-06-15T18:10:37.079Z,7.40
2018-06-15T18:13:04.809Z,6.47
2018-06-15T18:15:32.558Z,9.03
2018-06-15T18:18:00.255Z,6.43
2018-06-15T18:30:17.099Z,7.60
2018-06-15T18:32:44.882Z,6.27
2018-06-15T18:35:13.457Z,7.43
2018-06-15T18:37:50.087Z,7.33
2018-06-15T18:40:17.799Z,4.90
2018-06-15T18:42:45.499Z,5.00
2018-06-15T18:45:13.173Z,6.23
2018-06-15T18:47:41.316Z,4.40
2018-06-15T18:50:10.305Z,5.27
2018-06-15T18:52:39.699Z,6.53
2018-06-15T18:55:08.068Z,5.00
2018-06-15T18:57:37.235Z,5.63
2018-06-15T19:00:06.199Z,6.27
2018-06-15T19:02:34.247Z,6.90
2018-06-15T19:05:01.946Z,6.47
2018-06-15T19:07:30.485Z,4.43
2018-06-15T19:09:59.397Z,5.73
2018-06-15T19:12:27.251Z,8.40
2018-06-15T19:14:54.923Z,12.83
2018-06-15T19:17:22.811Z,14.47
2018-06-15T19:19:50.539Z,11.20
2018-06-15T19:22:29.892Z,17.60
2018-06-15T19:24:57.839Z,13.30
2018-06-15T19:27:25.893Z,16.93
2018-06-15T19:29:53.663Z,18.33
2018-06-15T19:32:21.435Z,14.37
2018-06-15T19:34:49.402Z,13.60
2018-06-15T19:37:17.160Z,13.87
2018-06-15T19:39:44.918Z,17.10
2018-06-15T19:42:13.359Z,17.97
2018-06-15T19:44:41.119Z,14.97
2018-06-15T19:47:08.847Z,16.87
2018-06-15T19:49:37.572Z,17.10
2018-06-15T19:52:05.872Z,14.90
2018-06-15T20:04:19.834Z,12.40
2018-06-15T20:06:48.651Z,12.23
2018-06-15T20:09:16.445Z,13.57
2018-06-15T20:11:44.007Z,11.33
2018-06-15T20:14:11.683Z,10.40
2018-06-15T20:16:41.325Z,11.10
2018-06-15T20:19:09.691Z,11.43
2018-06-15T20:21:37.711Z,13.57
2018-06-15T20:24:05.409Z,13.30
2018-06-15T20:26:36.623Z,9.03
2018-06-15T20:29:04.735Z,10.23
2018-06-15T20:31:32.796Z,10.60
2018-06-15T20:34:00.769Z,14.13
2018-06-15T20:36:28.601Z,9.83
2018-06-15T20:38:56.367Z,11.43
2018-06-15T20:41:24.090Z,13.70
2018-06-15T20:43:52.285Z,12.57
2018-06-15T20:46:20.209Z,14.37
2018-06-15T20:48:47.928Z,11.30
2018-06-15T20:51:15.918Z,18.53
2018-06-15T20:53:43.622Z,10.63
2018-06-15T20:56:12.309Z,11.93
2018-06-15T20:58:40.680Z,10.13
2018-06-15T21:01:08.461Z,11.97
2018-06-15T21:03:36.717Z,10.53
2018-06-15T21:06:04.807Z,9.37
2018-06-15T21:08:32.848Z,11.17
2018-06-15T21:11:00.495Z,12.77
2018-06-15T21:13:28.152Z,10.60
2018-06-15T21:15:55.799Z,12.00
2018-06-15T21:18:24.854Z,12.13
2018-06-15T21:20:52.518Z,10.83
2018-06-15T21:23:20.185Z,10.73
2018-06-15T21:25:47.879Z,9.17
2018-06-15T21:28:15.745Z,12.87
2018-06-15T21:30:43.702Z,12.67
2018-06-15T21:33:11.373Z,8.87
2018-06-15T21:35:39.361Z,9.13
2018-06-15T21:38:07.574Z,8.30
2018-06-15T21:40:36.079Z,9.53
2018-06-15T21:43:04.075Z,9.30
2018-06-15T21:45:32.504Z,9.03
2018-06-15T21:48:00.175Z,9.10
2018-06-15T21:50:28.143Z,9.27
2018-06-15T21:52:55.787Z,8.93
2018-06-15T21:55:24.412Z,9.43
2018-06-15T21:57:52.075Z,9.97
2018-06-15T22:00:19.743Z,9.77
2018-06-15T22:02:47.815Z,10.10
2018-06-15T22:05:15.507Z,9.90
2018-06-15T22:07:43.465Z,11.53
2018-06-15T22:10:11.137Z,9.37
2018-06-15T22:12:39.097Z,13.37
2018-06-15T22:15:06.833Z,11.37
2018-06-15T22:17:34.727Z,11.07
2018-06-15T22:20:02.507Z,8.90
2018-06-15T22:22:30.476Z,9.87
2018-06-15T22:24:58.179Z,12.27
2018-06-15T22:27:26.141Z,10.27
2018-06-15T22:29:53.783Z,11.73
2018-06-15T22:32:21.463Z,8.50
2018-06-15T22:44:30.331Z,9.70
2018-06-15T22:46:57.986Z,11.43
2018-06-15T22:49:25.936Z,11.93
2018-06-15T22:51:53.695Z,10.20
2018-06-15T22:54:21.461Z,11.97
2018-06-15T22:56:49.156Z,10.03
2018-06-15T22:59:17.232Z,13.60
2018-06-15T23:01:45.160Z,10.43
2018-06-15T23:04:13.319Z,10.97
2018-06-15T23:06:40.980Z,11.70
2018-06-15T23:09:10.334Z,10.10
2018-06-15T23:11:38.291Z,9.53
2018-06-15T23:14:07.013Z,11.27
2018-06-15T23:16:34.740Z,11.53
2018-06-15T23:19:02.757Z,8.93
2018-06-15T23:21:30.773Z,10.87
2018-06-15T23:23:58.449Z,10.57
2018-06-15T23:26:26.169Z,7.30
2018-06-15T23:28:55.261Z,10.33
2018-06-15T23:31:23.913Z,11.07
2018-06-15T23:33:51.653Z,11.57
2018-06-15T23:36:19.331Z,12.37
2018-06-15T23:38:47.248Z,11.73
2018-06-15T23:41:14.941Z,10.20
2018-06-15T23:43:42.663Z,11.90
2018-06-15T23:46:10.729Z,10.60
2018-06-15T23:48:38.476Z,9.13
2018-06-15T23:51:06.242Z,10.97
2018-06-15T23:53:34.068Z,11.60
